sensor_id;sensor_type;location;lat;lon;timestamp;P1;durP1;ratioP1;P2;durP2;ratioP2
44766;SDS011;30487;48.716;9.272;2023-04-06T00:00:55;9.02;;;5.05;;
44766;SDS011;30487;48.716;9.272;2023-04-06T00:03:21;15.07;;;5.80;;
44766;SDS011;30487;48.716;9.272;2023-04-06T00:05:47;13.38;;;5.57;;
44766;SDS011;30487;48.716;9.272;2023-04-06T00:08:13;11.13;;;5.53;;
44766;SDS011;30487;48.716;9.272;2023-04-06T00:10:39;10.20;;;5.90;;
44766;SDS011;30487;48.716;9.272;2023-04-06T00:13:05;10.80;;;5.45;;
44766;SDS011;30487;48.716;9.272;2023-04-06T00:15:31;11.20;;;5.93;;
44766;SDS011;30487;48.716;9.272;2023-04-06T00:17:56;12.13;;;5.75;;
44766;SDS011;30487;48.716;9.272;2023-04-06T00:20:22;11.13;;;6.05;;
44766;SDS011;30487;48.716;9.272;2023-04-06T00:22:48;11.63;;;5.60;;
44766;SDS011;30487;48.716;9.272;2023-04-06T00:25:13;14.65;;;6.00;;
44766;SDS011;30487;48.716;9.272;2023-04-06T00:27:40;12.05;;;5.93;;
44766;SDS011;30487;48.716;9.272;2023-04-06T00:30:06;12.43;;;5.88;;
44766;SDS011;30487;48.716;9.272;2023-04-06T00:32:33;11.90;;;5.75;;
44766;SDS011;30487;48.716;9.272;2023-04-06T00:35:01;10.07;;;5.80;;
44766;SDS011;30487;48.716;9.272;2023-04-06T00:37:30;11.75;;;6.03;;
44766;SDS011;30487;48.716;9.272;2023-04-06T00:39:56;12.10;;;5.35;;
44766;SDS011;30487;48.716;9.272;2023-04-06T00:42:22;12.68;;;5.90;;
44766;SDS011;30487;48.716;9.272;2023-04-06T00:44:54;13.50;;;5.78;;
44766;SDS011;30487;48.716;9.272;2023-04-06T00:47:21;12.13;;;6.03;;
44766;SDS011;30487;48.716;9.272;2023-04-06T00:49:48;11.25;;;6.70;;
44766;SDS011;30487;48.716;9.272;2023-04-06T00:52:13;12.00;;;6.43;;
44766;SDS011;30487;48.716;9.272;2023-04-06T00:54:40;11.65;;;6.55;;
44766;SDS011;30487;48.716;9.272;2023-04-06T00:57:05;11.60;;;5.78;;
44766;SDS011;30487;48.716;9.272;2023-04-06T00:59:31;13.23;;;6.63;;
44766;SDS011;30487;48.716;9.272;2023-04-06T01:01:57;13.52;;;6.43;;
44766;SDS011;30487;48.716;9.272;2023-04-06T01:04:23;11.70;;;6.60;;
44766;SDS011;30487;48.716;9.272;2023-04-06T01:06:49;12.68;;;6.85;;
44766;SDS011;30487;48.716;9.272;2023-04-06T01:09:15;14.40;;;6.78;;
44766;SDS011;30487;48.716;9.272;2023-04-06T01:11:41;12.48;;;6.03;;
44766;SDS011;30487;48.716;9.272;2023-04-06T01:14:07;11.85;;;5.93;;
44766;SDS011;30487;48.716;9.272;2023-04-06T01:16:33;11.77;;;6.47;;
44766;SDS011;30487;48.716;9.272;2023-04-06T01:18:59;16.52;;;6.00;;
44766;SDS011;30487;48.716;9.272;2023-04-06T01:21:25;14.10;;;6.70;;
44766;SDS011;30487;48.716;9.272;2023-04-06T01:23:51;12.70;;;6.32;;
44766;SDS011;30487;48.716;9.272;2023-04-06T01:26:17;13.20;;;6.85;;
44766;SDS011;30487;48.716;9.272;2023-04-06T01:28:42;13.52;;;7.13;;
44766;SDS011;30487;48.716;9.272;2023-04-06T01:31:09;11.50;;;6.53;;
44766;SDS011;30487;48.716;9.272;2023-04-06T01:33:35;12.90;;;6.35;;
44766;SDS011;30487;48.716;9.272;2023-04-06T01:36:01;15.60;;;7.53;;
44766;SDS011;30487;48.716;9.272;2023-04-06T01:38:28;13.27;;;6.70;;
44766;SDS011;30487;48.716;9.272;2023-04-06T01:40:53;10.93;;;6.53;;
44766;SDS011;30487;48.716;9.272;2023-04-06T01:43:20;15.23;;;6.78;;
44766;SDS011;30487;48.716;9.272;2023-04-06T01:45:45;13.35;;;6.88;;
44766;SDS011;30487;48.716;9.272;2023-04-06T01:48:11;11.30;;;6.15;;
44766;SDS011;30487;48.716;9.272;2023-04-06T01:50:36;11.77;;;6.07;;
44766;SDS011;30487;48.716;9.272;2023-04-06T01:53:02;15.60;;;6.65;;
44766;SDS011;30487;48.716;9.272;2023-04-06T01:55:28;15.73;;;6.82;;
44766;SDS011;30487;48.716;9.272;2023-04-06T01:57:53;12.68;;;6.68;;
44766;SDS011;30487;48.716;9.272;2023-04-06T02:00:19;12.60;;;7.10;;
44766;SDS011;30487;48.716;9.272;2023-04-06T02:02:44;14.43;;;6.75;;
44766;SDS011;30487;48.716;9.272;2023-04-06T02:05:10;17.58;;;6.85;;
44766;SDS011;30487;48.716;9.272;2023-04-06T02:07:36;12.85;;;6.30;;
44766;SDS011;30487;48.716;9.272;2023-04-06T02:10:01;13.45;;;6.47;;
44766;SDS011;30487;48.716;9.272;2023-04-06T02:12:28;12.23;;;6.28;;
44766;SDS011;30487;48.716;9.272;2023-04-06T02:14:53;11.98;;;6.05;;
44766;SDS011;30487;48.716;9.272;2023-04-06T02:17:19;12.02;;;6.05;;
44766;SDS011;30487;48.716;9.272;2023-04-06T02:19:45;10.75;;;6.00;;
44766;SDS011;30487;48.716;9.272;2023-04-06T02:22:11;13.52;;;6.53;;
44766;SDS011;30487;48.716;9.272;2023-04-06T02:24:36;11.40;;;6.18;;
44766;SDS011;30487;48.716;9.272;2023-04-06T02:27:02;12.50;;;6.03;;
44766;SDS011;30487;48.716;9.272;2023-04-06T02:29:28;10.55;;;6.13;;
44766;SDS011;30487;48.716;9.272;2023-04-06T02:31:53;11.55;;;5.95;;
44766;SDS011;30487;48.716;9.272;2023-04-06T02:34:19;9.68;;;6.20;;
44766;SDS011;30487;48.716;9.272;2023-04-06T02:36:45;12.32;;;6.20;;
44766;SDS011;30487;48.716;9.272;2023-04-06T02:39:11;11.57;;;6.20;;
44766;SDS011;30487;48.716;9.272;2023-04-06T02:41:38;12.25;;;6.35;;
44766;SDS011;30487;48.716;9.272;2023-04-06T02:44:04;11.07;;;6.25;;
44766;SDS011;30487;48.716;9.272;2023-04-06T02:46:33;13.63;;;6.18;;
44766;SDS011;30487;48.716;9.272;2023-04-06T02:48:59;11.23;;;6.03;;
44766;SDS011;30487;48.716;9.272;2023-04-06T02:51:25;10.68;;;6.05;;
44766;SDS011;30487;48.716;9.272;2023-04-06T02:53:51;12.18;;;5.80;;
44766;SDS011;30487;48.716;9.272;2023-04-06T02:56:17;12.68;;;6.75;;
44766;SDS011;30487;48.716;9.272;2023-04-06T02:58:43;11.20;;;6.00;;
44766;SDS011;30487;48.716;9.272;2023-04-06T03:01:08;11.02;;;6.00;;
44766;SDS011;30487;48.716;9.272;2023-04-06T03:03:34;12.43;;;6.18;;
44766;SDS011;30487;48.716;9.272;2023-04-06T03:06:00;13.25;;;5.93;;
44766;SDS011;30487;48.716;9.272;2023-04-06T03:08:26;10.48;;;5.88;;
44766;SDS011;30487;48.716;9.272;2023-04-06T03:10:51;10.77;;;5.63;;
44766;SDS011;30487;48.716;9.272;2023-04-06T03:13:17;11.02;;;5.70;;
44766;SDS011;30487;48.716;9.272;2023-04-06T03:15:42;12.68;;;6.10;;
44766;SDS011;30487;48.716;9.272;2023-04-06T03:18:08;13.00;;;6.00;;
44766;SDS011;30487;48.716;9.272;2023-04-06T03:20:33;11.18;;;6.30;;
44766;SDS011;30487;48.716;9.272;2023-04-06T03:22:59;12.30;;;6.13;;
44766;SDS011;30487;48.716;9.272;2023-04-06T03:25:25;10.68;;;6.13;;
44766;SDS011;30487;48.716;9.272;2023-04-06T03:27:50;13.93;;;6.45;;
44766;SDS011;30487;48.716;9.272;2023-04-06T03:30:17;16.92;;;7.03;;
44766;SDS011;30487;48.716;9.272;2023-04-06T03:32:43;12.35;;;6.40;;
44766;SDS011;30487;48.716;9.272;2023-04-06T03:35:09;12.25;;;6.40;;
44766;SDS011;30487;48.716;9.272;2023-04-06T03:37:35;11.90;;;6.22;;
44766;SDS011;30487;48.716;9.272;2023-04-06T03:40:01;13.05;;;6.65;;
44766;SDS011;30487;48.716;9.272;2023-04-06T03:42:27;15.85;;;6.63;;
44766;SDS011;30487;48.716;9.272;2023-04-06T03:44:53;13.45;;;6.32;;
44766;SDS011;30487;48.716;9.272;2023-04-06T03:47:19;12.05;;;6.30;;
44766;SDS011;30487;48.716;9.272;2023-04-06T03:49:45;11.27;;;6.45;;
44766;SDS011;30487;48.716;9.272;2023-04-06T03:52:11;11.55;;;5.97;;
44766;SDS011;30487;48.716;9.272;2023-04-06T03:54:36;12.10;;;6.60;;
44766;SDS011;30487;48.716;9.272;2023-04-06T03:57:02;13.55;;;6.70;;
44766;SDS011;30487;48.716;9.272;2023-04-06T03:59:28;14.95;;;6.63;;
44766;SDS011;30487;48.716;9.272;2023-04-06T04:01:54;15.65;;;7.30;;
44766;SDS011;30487;48.716;9.272;2023-04-06T04:04:20;12.20;;;6.30;;
44766;SDS011;30487;48.716;9.272;2023-04-06T04:06:46;13.35;;;6.47;;
44766;SDS011;30487;48.716;9.272;2023-04-06T04:09:11;15.20;;;6.90;;
44766;SDS011;30487;48.716;9.272;2023-04-06T04:11:37;13.73;;;6.72;;
44766;SDS011;30487;48.716;9.272;2023-04-06T04:14:03;15.63;;;6.88;;
44766;SDS011;30487;48.716;9.272;2023-04-06T04:16:28;15.25;;;7.13;;
44766;SDS011;30487;48.716;9.272;2023-04-06T04:18:54;15.73;;;6.20;;
44766;SDS011;30487;48.716;9.272;2023-04-06T04:21:20;12.82;;;6.93;;
44766;SDS011;30487;48.716;9.272;2023-04-06T04:23:46;15.63;;;6.82;;
44766;SDS011;30487;48.716;9.272;2023-04-06T04:26:11;14.52;;;7.22;;
44766;SDS011;30487;48.716;9.272;2023-04-06T04:28:37;13.43;;;6.80;;
44766;SDS011;30487;48.716;9.272;2023-04-06T04:31:02;11.80;;;6.75;;
44766;SDS011;30487;48.716;9.272;2023-04-06T04:33:28;17.95;;;6.78;;
44766;SDS011;30487;48.716;9.272;2023-04-06T04:35:54;11.90;;;6.72;;
44766;SDS011;30487;48.716;9.272;2023-04-06T04:38:19;12.35;;;6.00;;
44766;SDS011;30487;48.716;9.272;2023-04-06T04:40:45;12.98;;;6.55;;
44766;SDS011;30487;48.716;9.272;2023-04-06T04:43:11;14.73;;;6.38;;
44766;SDS011;30487;48.716;9.272;2023-04-06T04:45:36;12.13;;;6.07;;
44766;SDS011;30487;48.716;9.272;2023-04-06T04:48:02;12.15;;;5.78;;
44766;SDS011;30487;48.716;9.272;2023-04-06T04:50:29;15.57;;;6.55;;
44766;SDS011;30487;48.716;9.272;2023-04-06T04:52:55;17.65;;;6.43;;
44766;SDS011;30487;48.716;9.272;2023-04-06T04:55:21;11.98;;;6.50;;
44766;SDS011;30487;48.716;9.272;2023-04-06T04:57:46;10.05;;;5.95;;
44766;SDS011;30487;48.716;9.272;2023-04-06T05:00:12;16.95;;;6.25;;
44766;SDS011;30487;48.716;9.272;2023-04-06T05:02:38;14.88;;;6.10;;
44766;SDS011;30487;48.716;9.272;2023-04-06T05:05:04;12.02;;;6.70;;
44766;SDS011;30487;48.716;9.272;2023-04-06T05:07:30;15.32;;;6.80;;
44766;SDS011;30487;48.716;9.272;2023-04-06T05:09:56;12.40;;;6.20;;
44766;SDS011;30487;48.716;9.272;2023-04-06T05:12:22;12.73;;;6.20;;
44766;SDS011;30487;48.716;9.272;2023-04-06T05:14:47;11.30;;;6.10;;
44766;SDS011;30487;48.716;9.272;2023-04-06T05:17:13;12.13;;;5.97;;
44766;SDS011;30487;48.716;9.272;2023-04-06T05:19:38;12.77;;;6.50;;
44766;SDS011;30487;48.716;9.272;2023-04-06T05:22:04;11.48;;;5.85;;
44766;SDS011;30487;48.716;9.272;2023-04-06T05:24:30;10.30;;;5.28;;
44766;SDS011;30487;48.716;9.272;2023-04-06T05:26:56;10.00;;;5.82;;
44766;SDS011;30487;48.716;9.272;2023-04-06T05:29:21;13.57;;;5.90;;
44766;SDS011;30487;48.716;9.272;2023-04-06T05:31:47;13.65;;;6.10;;
44766;SDS011;30487;48.716;9.272;2023-04-06T05:34:13;13.45;;;5.95;;
44766;SDS011;30487;48.716;9.272;2023-04-06T05:36:38;10.70;;;6.00;;
44766;SDS011;30487;48.716;9.272;2023-04-06T05:39:05;11.82;;;5.43;;
44766;SDS011;30487;48.716;9.272;2023-04-06T05:41:31;10.50;;;6.18;;
44766;SDS011;30487;48.716;9.272;2023-04-06T05:43:57;11.48;;;5.90;;
44766;SDS011;30487;48.716;9.272;2023-04-06T05:46:23;9.63;;;5.38;;
44766;SDS011;30487;48.716;9.272;2023-04-06T05:48:48;10.32;;;5.80;;
44766;SDS011;30487;48.716;9.272;2023-04-06T05:51:14;14.27;;;7.10;;
44766;SDS011;30487;48.716;9.272;2023-04-06T05:53:40;14.63;;;7.70;;
44766;SDS011;30487;48.716;9.272;2023-04-06T05:56:06;12.40;;;6.72;;
44766;SDS011;30487;48.716;9.272;2023-04-06T05:58:32;13.45;;;6.45;;
44766;SDS011;30487;48.716;9.272;2023-04-06T06:01:00;9.98;;;5.65;;
44766;SDS011;30487;48.716;9.272;2023-04-06T06:03:26;13.65;;;5.82;;
44766;SDS011;30487;48.716;9.272;2023-04-06T06:05:52;10.93;;;5.88;;
44766;SDS011;30487;48.716;9.272;2023-04-06T06:08:17;12.90;;;6.15;;
44766;SDS011;30487;48.716;9.272;2023-04-06T06:10:43;11.63;;;6.18;;
44766;SDS011;30487;48.716;9.272;2023-04-06T06:13:09;10.25;;;5.88;;
44766;SDS011;30487;48.716;9.272;2023-04-06T06:15:34;14.52;;;6.50;;
44766;SDS011;30487;48.716;9.272;2023-04-06T06:18:00;11.80;;;5.75;;
44766;SDS011;30487;48.716;9.272;2023-04-06T06:20:26;12.43;;;5.68;;
44766;SDS011;30487;48.716;9.272;2023-04-06T06:22:52;12.90;;;5.60;;
44766;SDS011;30487;48.716;9.272;2023-04-06T06:25:18;14.38;;;5.70;;
44766;SDS011;30487;48.716;9.272;2023-04-06T06:27:43;14.38;;;5.68;;
44766;SDS011;30487;48.716;9.272;2023-04-06T06:30:09;10.55;;;5.75;;
44766;SDS011;30487;48.716;9.272;2023-04-06T06:32:35;13.18;;;5.60;;
44766;SDS011;30487;48.716;9.272;2023-04-06T06:35:01;13.02;;;6.03;;
44766;SDS011;30487;48.716;9.272;2023-04-06T06:37:27;11.70;;;6.47;;
44766;SDS011;30487;48.716;9.272;2023-04-06T06:39:53;13.20;;;6.43;;
44766;SDS011;30487;48.716;9.272;2023-04-06T06:42:18;11.68;;;6.13;;
44766;SDS011;30487;48.716;9.272;2023-04-06T06:44:44;15.25;;;6.57;;
44766;SDS011;30487;48.716;9.272;2023-04-06T06:47:10;12.20;;;6.60;;
44766;SDS011;30487;48.716;9.272;2023-04-06T06:49:35;13.43;;;6.35;;
44766;SDS011;30487;48.716;9.272;2023-04-06T06:52:01;12.00;;;6.43;;
44766;SDS011;30487;48.716;9.272;2023-04-06T06:54:27;10.80;;;5.93;;
44766;SDS011;30487;48.716;9.272;2023-04-06T06:56:52;12.30;;;5.90;;
44766;SDS011;30487;48.716;9.272;2023-04-06T06:59:19;15.48;;;6.30;;
44766;SDS011;30487;48.716;9.272;2023-04-06T07:01:46;9.25;;;5.60;;
44766;SDS011;30487;48.716;9.272;2023-04-06T07:04:11;11.43;;;6.38;;
44766;SDS011;30487;48.716;9.272;2023-04-06T07:06:37;12.48;;;6.55;;
44766;SDS011;30487;48.716;9.272;2023-04-06T07:09:02;11.88;;;6.38;;
44766;SDS011;30487;48.716;9.272;2023-04-06T07:11:29;11.38;;;6.25;;
44766;SDS011;30487;48.716;9.272;2023-04-06T07:13:55;14.25;;;6.35;;
44766;SDS011;30487;48.716;9.272;2023-04-06T07:16:21;11.70;;;6.10;;
44766;SDS011;30487;48.716;9.272;2023-04-06T07:18:46;13.07;;;6.72;;
44766;SDS011;30487;48.716;9.272;2023-04-06T07:21:12;13.82;;;5.95;;
44766;SDS011;30487;48.716;9.272;2023-04-06T07:23:38;16.40;;;6.78;;
44766;SDS011;30487;48.716;9.272;2023-04-06T07:26:03;16.80;;;6.70;;
44766;SDS011;30487;48.716;9.272;2023-04-06T07:28:29;12.32;;;6.03;;
44766;SDS011;30487;48.716;9.272;2023-04-06T07:30:55;13.00;;;6.07;;
44766;SDS011;30487;48.716;9.272;2023-04-06T07:33:21;12.13;;;6.60;;
44766;SDS011;30487;48.716;9.272;2023-04-06T07:35:46;11.63;;;6.53;;
44766;SDS011;30487;48.716;9.272;2023-04-06T07:38:12;12.50;;;7.07;;
44766;SDS011;30487;48.716;9.272;2023-04-06T07:40:38;12.60;;;6.40;;
44766;SDS011;30487;48.716;9.272;2023-04-06T07:43:04;13.27;;;6.45;;
44766;SDS011;30487;48.716;9.272;2023-04-06T07:45:29;13.73;;;6.72;;
44766;SDS011;30487;48.716;9.272;2023-04-06T07:47:55;11.32;;;6.38;;
44766;SDS011;30487;48.716;9.272;2023-04-06T07:50:21;13.32;;;6.85;;
44766;SDS011;30487;48.716;9.272;2023-04-06T07:52:47;11.82;;;6.57;;
44766;SDS011;30487;48.716;9.272;2023-04-06T07:55:13;14.85;;;7.45;;
44766;SDS011;30487;48.716;9.272;2023-04-06T07:57:39;13.80;;;7.53;;
44766;SDS011;30487;48.716;9.272;2023-04-06T08:00:05;13.77;;;6.93;;
44766;SDS011;30487;48.716;9.272;2023-04-06T08:02:31;16.30;;;7.20;;
44766;SDS011;30487;48.716;9.272;2023-04-06T08:04:57;14.35;;;7.22;;
44766;SDS011;30487;48.716;9.272;2023-04-06T08:07:23;14.23;;;6.95;;
44766;SDS011;30487;48.716;9.272;2023-04-06T08:09:48;11.15;;;6.47;;
44766;SDS011;30487;48.716;9.272;2023-04-06T08:12:15;15.88;;;6.70;;
44766;SDS011;30487;48.716;9.272;2023-04-06T08:14:40;12.32;;;6.63;;
44766;SDS011;30487;48.716;9.272;2023-04-06T08:17:06;14.48;;;7.00;;
44766;SDS011;30487;48.716;9.272;2023-04-06T08:19:31;13.32;;;6.85;;
44766;SDS011;30487;48.716;9.272;2023-04-06T08:21:57;9.90;;;6.40;;
44766;SDS011;30487;48.716;9.272;2023-04-06T08:24:23;13.10;;;6.65;;
44766;SDS011;30487;48.716;9.272;2023-04-06T08:26:48;11.80;;;6.40;;
44766;SDS011;30487;48.716;9.272;2023-04-06T08:29:15;11.43;;;6.00;;
44766;SDS011;30487;48.716;9.272;2023-04-06T08:31:41;9.07;;;6.07;;
44766;SDS011;30487;48.716;9.272;2023-04-06T08:34:06;13.02;;;6.50;;
44766;SDS011;30487;48.716;9.272;2023-04-06T08:36:32;10.80;;;6.18;;
44766;SDS011;30487;48.716;9.272;2023-04-06T08:38:58;14.98;;;6.63;;
44766;SDS011;30487;48.716;9.272;2023-04-06T08:41:25;12.10;;;6.18;;
44766;SDS011;30487;48.716;9.272;2023-04-06T08:43:58;11.57;;;6.40;;
44766;SDS011;30487;48.716;9.272;2023-04-06T08:46:25;10.65;;;6.10;;
44766;SDS011;30487;48.716;9.272;2023-04-06T08:48:55;12.40;;;6.43;;
44766;SDS011;30487;48.716;9.272;2023-04-06T08:51:25;12.20;;;6.80;;
44766;SDS011;30487;48.716;9.272;2023-04-06T08:53:52;10.25;;;6.40;;
44766;SDS011;30487;48.716;9.272;2023-04-06T08:56:22;11.65;;;6.85;;
44766;SDS011;30487;48.716;9.272;2023-04-06T08:58:48;13.70;;;6.63;;
44766;SDS011;30487;48.716;9.272;2023-04-06T09:01:17;10.90;;;6.38;;
44766;SDS011;30487;48.716;9.272;2023-04-06T09:03:45;12.82;;;6.18;;
44766;SDS011;30487;48.716;9.272;2023-04-06T09:06:13;10.82;;;6.57;;
44766;SDS011;30487;48.716;9.272;2023-04-06T09:08:39;11.50;;;6.93;;
44766;SDS011;30487;48.716;9.272;2023-04-06T09:11:06;12.88;;;6.80;;
44766;SDS011;30487;48.716;9.272;2023-04-06T09:13:49;12.07;;;6.18;;
44766;SDS011;30487;48.716;9.272;2023-04-06T09:16:15;12.27;;;6.25;;
44766;SDS011;30487;48.716;9.272;2023-04-06T09:18:42;10.23;;;6.38;;
44766;SDS011;30487;48.716;9.272;2023-04-06T09:21:07;8.90;;;5.80;;
44766;SDS011;30487;48.716;9.272;2023-04-06T09:23:34;10.27;;;6.70;;
44766;SDS011;30487;48.716;9.272;2023-04-06T09:26:10;12.80;;;6.97;;
44766;SDS011;30487;48.716;9.272;2023-04-06T09:28:58;11.93;;;6.93;;
44766;SDS011;30487;48.716;9.272;2023-04-06T09:31:30;10.45;;;6.60;;
44766;SDS011;30487;48.716;9.272;2023-04-06T09:33:59;11.45;;;6.53;;
44766;SDS011;30487;48.716;9.272;2023-04-06T09:36:32;12.30;;;6.75;;
44766;SDS011;30487;48.716;9.272;2023-04-06T09:41:32;14.32;;;7.05;;
44766;SDS011;30487;48.716;9.272;2023-04-06T09:46:36;12.73;;;6.45;;
44766;SDS011;30487;48.716;9.272;2023-04-06T09:49:04;11.23;;;7.00;;
44766;SDS011;30487;48.716;9.272;2023-04-06T09:51:31;11.90;;;6.97;;
44766;SDS011;30487;48.716;9.272;2023-04-06T09:54:04;12.70;;;6.95;;
44766;SDS011;30487;48.716;9.272;2023-04-06T09:56:36;10.88;;;6.13;;
44766;SDS011;30487;48.716;9.272;2023-04-06T09:59:13;10.77;;;6.30;;
44766;SDS011;30487;48.716;9.272;2023-04-06T10:01:43;11.55;;;5.32;;
44766;SDS011;30487;48.716;9.272;2023-04-06T10:06:49;9.07;;;5.57;;
44766;SDS011;30487;48.716;9.272;2023-04-06T10:09:17;9.80;;;5.80;;
44766;SDS011;30487;48.716;9.272;2023-04-06T10:11:49;9.20;;;5.22;;
44766;SDS011;30487;48.716;9.272;2023-04-06T10:14:15;8.98;;;4.95;;
44766;SDS011;30487;48.716;9.272;2023-04-06T10:16:42;8.52;;;4.80;;
44766;SDS011;30487;48.716;9.272;2023-04-06T10:19:10;9.10;;;5.00;;
44766;SDS011;30487;48.716;9.272;2023-04-06T10:21:41;8.55;;;5.18;;
44766;SDS011;30487;48.716;9.272;2023-04-06T10:24:12;6.18;;;3.95;;
44766;SDS011;30487;48.716;9.272;2023-04-06T10:26:38;6.00;;;3.80;;
44766;SDS011;30487;48.716;9.272;2023-04-06T10:29:05;7.45;;;4.25;;
44766;SDS011;30487;48.716;9.272;2023-04-06T10:31:31;10.68;;;4.72;;
44766;SDS011;30487;48.716;9.272;2023-04-06T10:34:00;8.48;;;4.57;;
44766;SDS011;30487;48.716;9.272;2023-04-06T10:36:28;7.57;;;4.57;;
44766;SDS011;30487;48.716;9.272;2023-04-06T10:39:02;9.02;;;5.53;;
44766;SDS011;30487;48.716;9.272;2023-04-06T10:41:42;8.43;;;5.00;;
44766;SDS011;30487;48.716;9.272;2023-04-06T10:44:30;7.95;;;3.92;;
44766;SDS011;30487;48.716;9.272;2023-04-06T10:46:56;6.88;;;4.28;;
44766;SDS011;30487;48.716;9.272;2023-04-06T10:49:22;8.40;;;4.53;;
44766;SDS011;30487;48.716;9.272;2023-04-06T10:51:55;8.15;;;4.10;;
44766;SDS011;30487;48.716;9.272;2023-04-06T10:54:21;7.50;;;4.80;;
44766;SDS011;30487;48.716;9.272;2023-04-06T10:56:49;7.47;;;5.03;;
44766;SDS011;30487;48.716;9.272;2023-04-06T10:59:19;7.53;;;4.75;;
44766;SDS011;30487;48.716;9.272;2023-04-06T11:01:46;7.63;;;4.65;;
44766;SDS011;30487;48.716;9.272;2023-04-06T11:04:15;11.57;;;5.00;;
44766;SDS011;30487;48.716;9.272;2023-04-06T11:06:45;10.48;;;5.22;;
44766;SDS011;30487;48.716;9.272;2023-04-06T11:09:22;9.70;;;4.90;;
44766;SDS011;30487;48.716;9.272;2023-04-06T11:11:49;8.02;;;4.80;;
44766;SDS011;30487;48.716;9.272;2023-04-06T11:14:15;8.80;;;5.45;;
44766;SDS011;30487;48.716;9.272;2023-04-06T11:16:41;8.82;;;4.57;;
44766;SDS011;30487;48.716;9.272;2023-04-06T11:19:06;8.73;;;5.07;;
44766;SDS011;30487;48.716;9.272;2023-04-06T11:21:36;7.18;;;3.83;;
44766;SDS011;30487;48.716;9.272;2023-04-06T11:24:07;5.03;;;2.83;;
44766;SDS011;30487;48.716;9.272;2023-04-06T11:26:44;4.68;;;2.95;;
44766;SDS011;30487;48.716;9.272;2023-04-06T11:29:19;6.07;;;3.80;;
44766;SDS011;30487;48.716;9.272;2023-04-06T11:31:46;7.32;;;3.83;;
44766;SDS011;30487;48.716;9.272;2023-04-06T11:34:16;5.13;;;2.80;;
44766;SDS011;30487;48.716;9.272;2023-04-06T11:36:46;6.40;;;3.37;;
44766;SDS011;30487;48.716;9.272;2023-04-06T11:39:13;7.15;;;3.38;;
44766;SDS011;30487;48.716;9.272;2023-04-06T11:41:47;4.50;;;3.10;;
44766;SDS011;30487;48.716;9.272;2023-04-06T11:44:13;5.05;;;2.90;;
44766;SDS011;30487;48.716;9.272;2023-04-06T11:46:39;5.63;;;3.15;;
44766;SDS011;30487;48.716;9.272;2023-04-06T11:49:05;4.70;;;3.10;;
44766;SDS011;30487;48.716;9.272;2023-04-06T11:51:34;5.88;;;3.13;;
44766;SDS011;30487;48.716;9.272;2023-04-06T11:54:01;7.50;;;3.08;;
44766;SDS011;30487;48.716;9.272;2023-04-06T11:56:27;6.25;;;2.88;;
44766;SDS011;30487;48.716;9.272;2023-04-06T11:58:55;5.45;;;3.20;;
44766;SDS011;30487;48.716;9.272;2023-04-06T12:01:22;6.97;;;3.13;;
44766;SDS011;30487;48.716;9.272;2023-04-06T12:03:48;6.07;;;3.35;;
44766;SDS011;30487;48.716;9.272;2023-04-06T12:06:15;6.28;;;3.00;;
44766;SDS011;30487;48.716;9.272;2023-04-06T12:08:40;4.47;;;3.05;;
44766;SDS011;30487;48.716;9.272;2023-04-06T12:11:06;5.15;;;3.13;;
44766;SDS011;30487;48.716;9.272;2023-04-06T12:13:32;5.75;;;3.13;;
44766;SDS011;30487;48.716;9.272;2023-04-06T12:15:57;7.78;;;3.00;;
44766;SDS011;30487;48.716;9.272;2023-04-06T12:18:23;5.05;;;3.25;;
44766;SDS011;30487;48.716;9.272;2023-04-06T12:20:50;5.45;;;2.97;;
44766;SDS011;30487;48.716;9.272;2023-04-06T12:23:16;5.40;;;3.13;;
44766;SDS011;30487;48.716;9.272;2023-04-06T12:25:42;6.03;;;3.28;;
44766;SDS011;30487;48.716;9.272;2023-04-06T12:28:07;6.68;;;3.15;;
44766;SDS011;30487;48.716;9.272;2023-04-06T12:30:36;6.10;;;3.17;;
44766;SDS011;30487;48.716;9.272;2023-04-06T12:33:01;5.57;;;2.92;;
44766;SDS011;30487;48.716;9.272;2023-04-06T12:35:27;5.40;;;3.50;;
44766;SDS011;30487;48.716;9.272;2023-04-06T12:37:53;5.85;;;3.50;;
44766;SDS011;30487;48.716;9.272;2023-04-06T12:40:19;5.75;;;3.10;;
44766;SDS011;30487;48.716;9.272;2023-04-06T12:42:45;5.18;;;3.35;;
44766;SDS011;30487;48.716;9.272;2023-04-06T12:45:11;5.57;;;3.25;;
44766;SDS011;30487;48.716;9.272;2023-04-06T12:47:37;7.10;;;4.03;;
44766;SDS011;30487;48.716;9.272;2023-04-06T12:50:03;5.72;;;3.35;;
44766;SDS011;30487;48.716;9.272;2023-04-06T12:52:30;5.40;;;3.58;;
44766;SDS011;30487;48.716;9.272;2023-04-06T12:54:57;5.88;;;3.33;;
44766;SDS011;30487;48.716;9.272;2023-04-06T12:57:25;5.07;;;3.35;;
44766;SDS011;30487;48.716;9.272;2023-04-06T12:59:51;5.70;;;3.50;;
44766;SDS011;30487;48.716;9.272;2023-04-06T13:02:17;6.38;;;3.78;;
44766;SDS011;30487;48.716;9.272;2023-04-06T13:04:45;8.35;;;4.10;;
44766;SDS011;30487;48.716;9.272;2023-04-06T13:07:11;5.85;;;3.47;;
44766;SDS011;30487;48.716;9.272;2023-04-06T13:09:36;6.90;;;3.65;;
44766;SDS011;30487;48.716;9.272;2023-04-06T13:12:02;9.70;;;3.97;;
44766;SDS011;30487;48.716;9.272;2023-04-06T13:14:28;7.75;;;3.72;;
44766;SDS011;30487;48.716;9.272;2023-04-06T13:16:53;7.03;;;3.53;;
44766;SDS011;30487;48.716;9.272;2023-04-06T13:19:19;9.05;;;3.97;;
44766;SDS011;30487;48.716;9.272;2023-04-06T13:21:45;5.88;;;3.53;;
44766;SDS011;30487;48.716;9.272;2023-04-06T13:24:10;6.22;;;3.65;;
44766;SDS011;30487;48.716;9.272;2023-04-06T13:26:36;7.65;;;3.90;;
44766;SDS011;30487;48.716;9.272;2023-04-06T13:29:02;6.95;;;3.58;;
44766;SDS011;30487;48.716;9.272;2023-04-06T13:31:28;7.55;;;4.03;;
44766;SDS011;30487;48.716;9.272;2023-04-06T13:33:54;7.43;;;3.70;;
44766;SDS011;30487;48.716;9.272;2023-04-06T13:36:20;8.18;;;3.97;;
44766;SDS011;30487;48.716;9.272;2023-04-06T13:38:46;7.90;;;3.97;;
44766;SDS011;30487;48.716;9.272;2023-04-06T13:41:21;6.10;;;3.90;;
44766;SDS011;30487;48.716;9.272;2023-04-06T13:43:48;5.15;;;3.38;;
44766;SDS011;30487;48.716;9.272;2023-04-06T13:46:14;7.78;;;3.60;;
44766;SDS011;30487;48.716;9.272;2023-04-06T13:48:40;8.48;;;3.90;;
44766;SDS011;30487;48.716;9.272;2023-04-06T13:51:13;7.05;;;4.15;;
44766;SDS011;30487;48.716;9.272;2023-04-06T13:53:39;5.93;;;3.75;;
44766;SDS011;30487;48.716;9.272;2023-04-06T13:56:05;6.00;;;3.60;;
44766;SDS011;30487;48.716;9.272;2023-04-06T13:58:32;6.60;;;3.97;;
44766;SDS011;30487;48.716;9.272;2023-04-06T14:01:01;5.93;;;3.63;;
44766;SDS011;30487;48.716;9.272;2023-04-06T14:03:31;7.53;;;3.65;;
44766;SDS011;30487;48.716;9.272;2023-04-06T14:05:57;5.15;;;3.63;;
44766;SDS011;30487;48.716;9.272;2023-04-06T14:08:23;6.18;;;3.75;;
44766;SDS011;30487;48.716;9.272;2023-04-06T14:10:49;8.57;;;4.05;;
44766;SDS011;30487;48.716;9.272;2023-04-06T14:13:14;6.25;;;3.75;;
44766;SDS011;30487;48.716;9.272;2023-04-06T14:15:40;6.13;;;3.53;;
44766;SDS011;30487;48.716;9.272;2023-04-06T14:18:07;6.88;;;3.72;;
44766;SDS011;30487;48.716;9.272;2023-04-06T14:20:33;5.68;;;3.60;;
44766;SDS011;30487;48.716;9.272;2023-04-06T14:23:00;6.45;;;3.50;;
44766;SDS011;30487;48.716;9.272;2023-04-06T14:25:26;5.90;;;3.47;;
44766;SDS011;30487;48.716;9.272;2023-04-06T14:27:52;7.45;;;3.45;;
44766;SDS011;30487;48.716;9.272;2023-04-06T14:30:17;9.65;;;4.38;;
44766;SDS011;30487;48.716;9.272;2023-04-06T14:32:43;9.90;;;4.30;;
44766;SDS011;30487;48.716;9.272;2023-04-06T14:35:09;7.47;;;3.80;;
44766;SDS011;30487;48.716;9.272;2023-04-06T14:37:35;5.85;;;3.42;;
44766;SDS011;30487;48.716;9.272;2023-04-06T14:40:01;7.75;;;3.50;;
44766;SDS011;30487;48.716;9.272;2023-04-06T14:42:30;6.25;;;3.08;;